sensor_id;sensor_type;location;lat;lon;timestamp;P1;durP1;ratioP1;P2;durP2;ratioP2
25731;SDS011;13585;50.864;4.406;2022-12-16T07:12:46;10.88;;;6.20;;
25731;SDS011;13585;50.864;4.406;2022-12-16T07:28:12;10.25;;;5.47;;
25731;SDS011;13585;50.864;4.406;2022-12-16T07:31:35;9.82;;;5.78;;
25731;SDS011;13585;50.864;4.406;2022-12-16T07:34:29;10.80;;;5.65;;
25731;SDS011;13585;50.864;4.406;2022-12-16T07:37:19;6.97;;;5.10;;
25731;SDS011;13585;50.864;4.406;2022-12-16T07:40:15;8.80;;;5.65;;
25731;SDS011;13585;50.864;4.406;2022-12-16T07:43:19;7.95;;;5.05;;
25731;SDS011;13585;50.864;4.406;2022-12-16T07:46:13;7.53;;;5.25;;
25731;SDS011;13585;50.864;4.406;2022-12-16T07:52:22;8.93;;;5.38;;
25731;SDS011;13585;50.864;4.406;2022-12-16T08:01:51;6.63;;;4.97;;
25731;SDS011;13585;50.864;4.406;2022-12-16T08:04:39;8.20;;;5.07;;
25731;SDS011;13585;50.864;4.406;2022-12-16T08:07:36;7.68;;;5.70;;
25731;SDS011;13585;50.864;4.406;2022-12-16T08:10:58;7.82;;;5.45;;
25731;SDS011;13585;50.864;4.406;2022-12-16T08:13:46;10.93;;;5.35;;
25731;SDS011;13585;50.864;4.406;2022-12-16T08:16:43;7.00;;;5.18;;
25731;SDS011;13585;50.864;4.406;2022-12-16T08:19:57;8.00;;;5.22;;
25731;SDS011;13585;50.864;4.406;2022-12-16T08:23:01;6.65;;;4.95;;
25731;SDS011;13585;50.864;4.406;2022-12-16T08:29:01;8.75;;;5.45;;
25731;SDS011;13585;50.864;4.406;2022-12-16T08:32:07;8.35;;;5.07;;
25731;SDS011;13585;50.864;4.406;2022-12-16T08:35:03;6.68;;;5.20;;
25731;SDS011;13585;50.864;4.406;2022-12-16T08:41:13;8.20;;;5.22;;
25731;SDS011;13585;50.864;4.406;2022-12-16T08:47:13;6.72;;;4.90;;
25731;SDS011;13585;50.864;4.406;2022-12-16T08:50:30;8.05;;;5.30;;
25731;SDS011;13585;50.864;4.406;2022-12-16T09:00:33;6.78;;;5.20;;
25731;SDS011;13585;50.864;4.406;2022-12-16T09:04:04;6.03;;;4.88;;
25731;SDS011;13585;50.864;4.406;2022-12-16T09:10:34;7.25;;;5.07;;
25731;SDS011;13585;50.864;4.406;2022-12-16T09:16:52;7.22;;;5.35;;
25731;SDS011;13585;50.864;4.406;2022-12-16T09:34:45;7.65;;;5.20;;
25731;SDS011;13585;50.864;4.406;2022-12-16T09:38:03;7.25;;;4.95;;
25731;SDS011;13585;50.864;4.406;2022-12-16T09:54:56;6.65;;;4.68;;
25731;SDS011;13585;50.864;4.406;2022-12-16T09:58:17;6.35;;;4.65;;
25731;SDS011;13585;50.864;4.406;2022-12-16T10:01:14;6.10;;;4.65;;
25731;SDS011;13585;50.864;4.406;2022-12-16T10:04:11;8.75;;;4.75;;
25731;SDS011;13585;50.864;4.406;2022-12-16T10:07:04;6.47;;;4.53;;
25731;SDS011;13585;50.864;4.406;2022-12-16T10:17:02;6.40;;;4.57;;
25731;SDS011;13585;50.864;4.406;2022-12-16T10:27:17;5.47;;;4.53;;
25731;SDS011;13585;50.864;4.406;2022-12-16T10:30:55;6.65;;;4.57;;
25731;SDS011;13585;50.864;4.406;2022-12-16T10:33:54;5.75;;;4.35;;
25731;SDS011;13585;50.864;4.406;2022-12-16T10:39:34;7.78;;;4.93;;
25731;SDS011;13585;50.864;4.406;2022-12-16T10:46:20;5.60;;;4.13;;
25731;SDS011;13585;50.864;4.406;2022-12-16T10:49:11;5.70;;;4.20;;
25731;SDS011;13585;50.864;4.406;2022-12-16T10:51:57;6.63;;;4.40;;
25731;SDS011;13585;50.864;4.406;2022-12-16T10:54:43;5.38;;;4.40;;
25731;SDS011;13585;50.864;4.406;2022-12-16T11:01:26;5.47;;;3.95;;
25731;SDS011;13585;50.864;4.406;2022-12-16T11:07:49;6.07;;;4.50;;
25731;SDS011;13585;50.864;4.406;2022-12-16T11:10:39;5.40;;;4.13;;
25731;SDS011;13585;50.864;4.406;2022-12-16T11:13:34;5.00;;;3.80;;
25731;SDS011;13585;50.864;4.406;2022-12-16T11:16:21;6.47;;;4.63;;
25731;SDS011;13585;50.864;4.406;2022-12-16T11:19:25;5.97;;;4.60;;
25731;SDS011;13585;50.864;4.406;2022-12-16T11:22:21;6.85;;;4.78;;
25731;SDS011;13585;50.864;4.406;2022-12-16T11:28:12;5.53;;;4.47;;
25731;SDS011;13585;50.864;4.406;2022-12-16T11:30:58;7.25;;;4.85;;
25731;SDS011;13585;50.864;4.406;2022-12-16T11:33:49;6.00;;;4.70;;
25731;SDS011;13585;50.864;4.406;2022-12-16T11:36:35;5.63;;;4.50;;
25731;SDS011;13585;50.864;4.406;2022-12-16T11:39:22;5.68;;;4.18;;
25731;SDS011;13585;50.864;4.406;2022-12-16T11:42:11;6.47;;;4.55;;
25731;SDS011;13585;50.864;4.406;2022-12-16T11:45:03;4.97;;;4.13;;
25731;SDS011;13585;50.864;4.406;2022-12-16T11:48:06;6.32;;;4.40;;
25731;SDS011;13585;50.864;4.406;2022-12-16T11:51:10;5.78;;;4.22;;
25731;SDS011;13585;50.864;4.406;2022-12-16T11:54:21;5.13;;;4.45;;
25731;SDS011;13585;50.864;4.406;2022-12-16T11:57:12;6.65;;;4.47;;
25731;SDS011;13585;50.864;4.406;2022-12-16T12:00:12;5.80;;;4.25;;
25731;SDS011;13585;50.864;4.406;2022-12-16T12:03:10;6.35;;;4.45;;
25731;SDS011;13585;50.864;4.406;2022-12-16T12:08:51;7.60;;;5.07;;
25731;SDS011;13585;50.864;4.406;2022-12-16T12:11:54;7.32;;;5.22;;
25731;SDS011;13585;50.864;4.406;2022-12-16T12:15:01;6.22;;;4.80;;
25731;SDS011;13585;50.864;4.406;2022-12-16T12:30:16;7.53;;;5.20;;
25731;SDS011;13585;50.864;4.406;2022-12-16T12:35:59;6.68;;;4.85;;
25731;SDS011;13585;50.864;4.406;2022-12-16T12:39:16;5.72;;;4.78;;
25731;SDS011;13585;50.864;4.406;2022-12-16T12:45:25;6.85;;;4.95;;
25731;SDS011;13585;50.864;4.406;2022-12-16T12:48:52;6.32;;;4.63;;
25731;SDS011;13585;50.864;4.406;2022-12-16T12:54:54;6.43;;;4.50;;
25731;SDS011;13585;50.864;4.406;2022-12-16T12:57:46;7.07;;;4.80;;
25731;SDS011;13585;50.864;4.406;2022-12-16T13:00:33;7.05;;;4.80;;
25731;SDS011;13585;50.864;4.406;2022-12-16T13:03:38;7.82;;;4.90;;
25731;SDS011;13585;50.864;4.406;2022-12-16T13:06:29;6.90;;;4.80;;
25731;SDS011;13585;50.864;4.406;2022-12-16T13:09:24;7.32;;;5.22;;
25731;SDS011;13585;50.864;4.406;2022-12-16T13:12:20;7.47;;;4.80;;
25731;SDS011;13585;50.864;4.406;2022-12-16T13:15:07;6.97;;;5.03;;
25731;SDS011;13585;50.864;4.406;2022-12-16T13:20:45;6.38;;;4.75;;
25731;SDS011;13585;50.864;4.406;2022-12-16T13:23:31;7.47;;;5.05;;
25731;SDS011;13585;50.864;4.406;2022-12-16T13:26:18;8.75;;;5.05;;
25731;SDS011;13585;50.864;4.406;2022-12-16T13:32:00;5.88;;;4.57;;
25731;SDS011;13585;50.864;4.406;2022-12-16T13:35:00;6.13;;;4.28;;
25731;SDS011;13585;50.864;4.406;2022-12-16T13:37:51;6.43;;;4.55;;
25731;SDS011;13585;50.864;4.406;2022-12-16T13:40:47;7.78;;;4.68;;
25731;SDS011;13585;50.864;4.406;2022-12-16T13:46:50;8.18;;;4.90;;
25731;SDS011;13585;50.864;4.406;2022-12-16T13:49:46;7.68;;;4.70;;
25731;SDS011;13585;50.864;4.406;2022-12-16T13:55:25;6.63;;;4.35;;
25731;SDS011;13585;50.864;4.406;2022-12-16T14:01:26;6.50;;;4.43;;
25731;SDS011;13585;50.864;4.406;2022-12-16T14:04:14;7.88;;;4.40;;
25731;SDS011;13585;50.864;4.406;2022-12-16T14:07:15;7.45;;;4.90;;
25731;SDS011;13585;50.864;4.406;2022-12-16T14:10:00;7.35;;;4.93;;
25731;SDS011;13585;50.864;4.406;2022-12-16T14:21:47;8.45;;;4.18;;
25731;SDS011;13585;50.864;4.406;2022-12-16T14:24:35;6.07;;;4.00;;
25731;SDS011;13585;50.864;4.406;2022-12-16T14:27:21;5.95;;;4.07;;
25731;SDS011;13585;50.864;4.406;2022-12-16T14:33:23;6.22;;;3.80;;
25731;SDS011;13585;50.864;4.406;2022-12-16T14:36:23;6.15;;;3.90;;
25731;SDS011;13585;50.864;4.406;2022-12-16T14:39:28;6.32;;;4.28;;
25731;SDS011;13585;50.864;4.406;2022-12-16T14:42:48;7.70;;;3.95;;
25731;SDS011;13585;50.864;4.406;2022-12-16T14:45:36;5.50;;;4.15;;
25731;SDS011;13585;50.864;4.406;2022-12-16T14:48:31;7.00;;;4.20;;
25731;SDS011;13585;50.864;4.406;2022-12-16T14:54:37;9.10;;;4.20;;
25731;SDS011;13585;50.864;4.406;2022-12-16T14:57:33;5.80;;;3.72;;
25731;SDS011;13585;50.864;4.406;2022-12-16T15:00:21;5.15;;;3.25;;
25731;SDS011;13585;50.864;4.406;2022-12-16T15:06:02;7.45;;;3.45;;
25731;SDS011;13585;50.864;4.406;2022-12-16T15:08:50;5.22;;;3.45;;
25731;SDS011;13585;50.864;4.406;2022-12-16T15:11:42;6.50;;;3.15;;
25731;SDS011;13585;50.864;4.406;2022-12-16T15:14:33;7.10;;;3.50;;
25731;SDS011;13585;50.864;4.406;2022-12-16T15:20:14;4.25;;;3.28;;
25731;SDS011;13585;50.864;4.406;2022-12-16T15:23:25;4.38;;;2.97;;
25731;SDS011;13585;50.864;4.406;2022-12-16T15:26:17;6.63;;;3.22;;
25731;SDS011;13585;50.864;4.406;2022-12-16T15:35:22;4.10;;;2.80;;
25731;SDS011;13585;50.864;4.406;2022-12-16T15:38:30;4.55;;;3.10;;
25731;SDS011;13585;50.864;4.406;2022-12-16T15:41:29;4.40;;;2.85;;
25731;SDS011;13585;50.864;4.406;2022-12-16T15:44:20;3.40;;;2.60;;
25731;SDS011;13585;50.864;4.406;2022-12-16T15:47:20;3.95;;;3.00;;
25731;SDS011;13585;50.864;4.406;2022-12-16T15:50:15;4.07;;;2.83;;
25731;SDS011;13585;50.864;4.406;2022-12-16T15:56:26;4.40;;;2.50;;
25731;SDS011;13585;50.864;4.406;2022-12-16T15:59:32;5.18;;;3.35;;
25731;SDS011;13585;50.864;4.406;2022-12-16T16:02:34;4.90;;;2.85;;
25731;SDS011;13585;50.864;4.406;2022-12-16T16:05:22;4.15;;;3.00;;
25731;SDS011;13585;50.864;4.406;2022-12-16T16:08:09;3.70;;;2.80;;
25731;SDS011;13585;50.864;4.406;2022-12-16T16:10:53;5.35;;;3.22;;
25731;SDS011;13585;50.864;4.406;2022-12-16T16:13:38;3.95;;;2.88;;
25731;SDS011;13585;50.864;4.406;2022-12-16T16:16:22;4.40;;;2.80;;
25731;SDS011;13585;50.864;4.406;2022-12-16T16:19:20;4.32;;;2.75;;
25731;SDS011;13585;50.864;4.406;2022-12-16T16:22:09;3.40;;;2.55;;
25731;SDS011;13585;50.864;4.406;2022-12-16T16:24:57;6.25;;;3.28;;
25731;SDS011;13585;50.864;4.406;2022-12-16T16:27:42;3.58;;;2.72;;
25731;SDS011;13585;50.864;4.406;2022-12-16T16:30:26;5.28;;;3.40;;
25731;SDS011;13585;50.864;4.406;2022-12-16T16:33:14;4.28;;;3.25;;
25731;SDS011;13585;50.864;4.406;2022-12-16T16:35:58;4.18;;;2.80;;
25731;SDS011;13585;50.864;4.406;2022-12-16T16:38:42;4.90;;;3.42;;
25731;SDS011;13585;50.864;4.406;2022-12-16T16:41:26;4.15;;;2.97;;
25731;SDS011;13585;50.864;4.406;2022-12-16T16:44:20;4.35;;;2.95;;
25731;SDS011;13585;50.864;4.406;2022-12-16T16:47:08;4.95;;;3.15;;
25731;SDS011;13585;50.864;4.406;2022-12-16T16:50:00;4.68;;;2.88;;
25731;SDS011;13585;50.864;4.406;2022-12-16T16:52:44;4.75;;;3.10;;
25731;SDS011;13585;50.864;4.406;2022-12-16T16:55:29;6.22;;;2.95;;
25731;SDS011;13585;50.864;4.406;2022-12-16T17:01:38;6.28;;;3.13;;
25731;SDS011;13585;50.864;4.406;2022-12-16T17:08:05;5.00;;;3.05;;
25731;SDS011;13585;50.864;4.406;2022-12-16T17:10:52;3.63;;;3.10;;
25731;SDS011;13585;50.864;4.406;2022-12-16T17:13:37;5.97;;;3.22;;
25731;SDS011;13585;50.864;4.406;2022-12-16T17:42:06;6.55;;;3.53;;
25731;SDS011;13585;50.864;4.406;2022-12-16T17:45:41;5.32;;;3.45;;
25731;SDS011;13585;50.864;4.406;2022-12-16T17:51:49;5.47;;;3.83;;
25731;SDS011;13585;50.864;4.406;2022-12-16T17:55:24;5.13;;;3.80;;
25731;SDS011;13585;50.864;4.406;2022-12-16T19:13:33;10.90;;;6.55;;
25731;SDS011;13585;50.864;4.406;2022-12-16T19:48:40;52.67;;;19.92;;
25731;SDS011;13585;50.864;4.406;2022-12-16T19:51:27;41.85;;;18.80;;
25731;SDS011;13585;50.864;4.406;2022-12-16T19:54:13;39.28;;;17.80;;
25731;SDS011;13585;50.864;4.406;2022-12-16T19:57:11;43.67;;;18.55;;
25731;SDS011;13585;50.864;4.406;2022-12-16T20:10:53;30.60;;;16.60;;
25731;SDS011;13585;50.864;4.406;2022-12-16T20:13:39;36.33;;;16.55;;
25731;SDS011;13585;50.864;4.406;2022-12-16T20:16:25;35.45;;;16.05;;
25731;SDS011;13585;50.864;4.406;2022-12-16T20:19:10;34.45;;;15.52;;
25731;SDS011;13585;50.864;4.406;2022-12-16T20:22:24;31.85;;;15.95;;
25731;SDS011;13585;50.864;4.406;2022-12-16T20:25:11;29.20;;;15.00;;
25731;SDS011;13585;50.864;4.406;2022-12-16T20:27:56;31.70;;;14.57;;
25731;SDS011;13585;50.864;4.406;2022-12-16T20:31:16;28.70;;;14.65;;
25731;SDS011;13585;50.864;4.406;2022-12-16T20:34:14;30.35;;;15.00;;
25731;SDS011;13585;50.864;4.406;2022-12-16T20:36:58;30.55;;;15.13;;
25731;SDS011;13585;50.864;4.406;2022-12-16T20:40:00;25.23;;;14.32;;
25731;SDS011;13585;50.864;4.406;2022-12-16T20:42:53;24.20;;;13.27;;
25731;SDS011;13585;50.864;4.406;2022-12-16T20:45:57;25.70;;;13.52;;
25731;SDS011;13585;50.864;4.406;2022-12-16T20:48:53;26.70;;;13.60;;
25731;SDS011;13585;50.864;4.406;2022-12-16T20:52:03;27.52;;;14.20;;
25731;SDS011;13585;50.864;4.406;2022-12-16T20:55:06;24.15;;;14.13;;
25731;SDS011;13585;50.864;4.406;2022-12-16T21:53:57;20.90;;;11.82;;
25731;SDS011;13585;50.864;4.406;2022-12-16T21:57:01;22.25;;;12.48;;
25731;SDS011;13585;50.864;4.406;2022-12-16T22:00:00;19.83;;;11.98;;
